Time;durP1;ratioP1;P1;durP2;ratioP2;P2;SDS_P1;SDS_P2;PMS_P1;PMS_P2;Temp;Humidity;BMP_temperature;BMP_pressure;BME280_temperature;BME280_humidity;BME280_pressure;Samples;Min_cycle;Max_cycle;Signal;HPM_P1;HPM_P2
2022/01/27 00:01:07;;;;;;;4.95;3.53;;;9.40;81.00;;;;;;5073645;28;20048;-58
2022/01/27 00:03:48;;;;;;;4.75;3.28;;;9.40;81.00;;;;;;5073561;28;20123;-57
2022/01/27 00:06:16;;;;;;;5.38;3.88;;;9.40;81.10;;;;;;5072821;28;20042;-55
2022/01/27 00:08:47;;;;;;;6.70;4.00;;;9.40;81.00;;;;;;5073486;28;20051;-58
2022/01/27 00:11:15;;;;;;;5.25;3.97;;;9.40;81.10;;;;;;5072767;28;20063;-59
2022/01/27 00:13:48;;;;;;;5.32;3.92;;;9.40;81.10;;;;;;5073396;28;20052;-59
2022/01/27 00:16:25;;;;;;;4.82;3.83;;;9.40;81.10;;;;;;5072468;28;20079;-61
2022/01/27 00:18:52;;;;;;;4.60;3.83;;;9.40;81.10;;;;;;5073227;28;20048;-56
2022/01/27 00:21:24;;;;;;;5.35;3.53;;;9.40;81.10;;;;;;5072778;28;20087;-58
2022/01/27 00:23:51;;;;;;;4.47;3.95;;;9.40;81.10;;;;;;5072735;28;20503;-58
2022/01/27 00:26:18;;;;;;;4.38;3.25;;;9.30;81.10;;;;;;5072670;28;20048;-56
2022/01/27 00:28:46;;;;;;;5.40;3.55;;;9.40;81.10;;;;;;5055193;28;20064;-56
2022/01/27 00:31:13;;;;;;;5.65;3.47;;;9.40;81.10;;;;;;5072388;28;20044;-57
2022/01/27 00:33:39;;;;;;;4.85;3.83;;;9.40;81.10;;;;;;5072972;28;20400;-55
2022/01/27 00:36:05;;;;;;;5.13;3.50;;;9.40;81.80;;;;;;5072346;28;20075;-59
2022/01/27 00:38:31;;;;;;;5.10;3.42;;;9.40;81.10;;;;;;5072348;28;20094;-56
2022/01/27 00:40:58;;;;;;;5.15;3.60;;;9.40;81.10;;;;;;5072597;28;20481;-53
2022/01/27 00:43:23;;;;;;;5.20;3.25;;;9.40;81.10;;;;;;5072828;28;20052;-58
2022/01/27 00:45:49;;;;;;;4.78;3.60;;;9.40;81.10;;;;;;5072460;28;20049;-57
2022/01/27 00:48:17;;;;;;;4.97;3.75;;;9.40;81.10;;;;;;5072318;28;20037;-55
2022/01/27 00:50:44;;;;;;;6.25;3.72;;;9.40;81.20;;;;;;5072756;28;20054;-51
2022/01/27 00:53:29;;;;;;;5.25;3.75;;;9.40;81.20;;;;;;5071524;28;20048;-57
2022/01/27 00:55:57;;;;;;;5.13;3.65;;;9.40;81.20;;;;;;5072614;28;20048;-60
2022/01/27 01:01:02;;;;;;;4.68;3.47;;;9.50;81.20;;;;;;5072396;28;20036;-60
2022/01/27 01:03:36;;;;;;;7.30;3.78;;;9.50;81.20;;;;;;5072266;28;20476;-55
2022/01/27 01:16:13;;;;;;;4.78;3.38;;;9.40;81.20;;;;;;5071546;28;20055;-61
2022/01/27 01:19:21;;;;;;;5.25;3.50;;;9.40;81.20;;;;;;5071789;28;20605;-58
2022/01/27 01:32:17;;;;;;;6.50;3.95;;;9.40;81.20;;;;;;5071513;28;20167;-55
2022/01/27 01:34:46;;;;;;;4.43;3.50;;;9.40;81.20;;;;;;5072051;28;20048;-57
2022/01/27 01:37:17;;;;;;;5.32;3.67;;;9.40;81.90;;;;;;5057035;28;20052;-57
2022/01/27 01:39:42;;;;;;;4.88;3.80;;;9.50;81.30;;;;;;5053569;28;20049;-57
2022/01/27 01:42:10;;;;;;;5.13;3.50;;;9.50;81.30;;;;;;5050937;28;20051;-57
2022/01/27 01:44:36;;;;;;;5.70;3.72;;;9.50;81.30;;;;;;5051590;28;20052;-56
2022/01/27 01:47:03;;;;;;;5.80;3.83;;;9.40;81.30;;;;;;5051332;28;20033;-57
2022/01/27 01:49:29;;;;;;;4.75;3.28;;;9.40;81.30;;;;;;5051421;28;20469;-56
2022/01/27 01:51:58;;;;;;;5.22;3.63;;;9.40;81.30;;;;;;5051701;28;20047;-58
2022/01/27 01:54:24;;;;;;;5.97;3.80;;;9.40;81.30;;;;;;5051159;28;20053;-54
2022/01/27 01:56:50;;;;;;;6.75;4.40;;;9.40;81.30;;;;;;5051659;28;20045;-57
2022/01/27 01:59:16;;;;;;;4.38;3.30;;;9.40;81.30;;;;;;5050988;28;20041;-53
2022/01/27 02:01:42;;;;;;;5.57;3.90;;;9.50;81.30;;;;;;5051297;28;20059;-54
2022/01/27 02:04:10;;;;;;;5.93;4.15;;;9.50;81.30;;;;;;5051817;28;20055;-56
2022/01/27 02:06:47;;;;;;;6.60;4.32;;;9.40;81.30;;;;;;5057883;28;20037;-55
2022/01/27 02:09:23;;;;;;;4.53;3.45;;;9.50;81.30;;;;;;5057354;28;20435;-57
2022/01/27 02:20:04;;;;;;;5.10;3.60;;;9.50;81.40;;;;;;5057573;28;20045;-58
2022/01/27 02:22:30;;;;;;;5.35;4.03;;;9.40;81.30;;;;;;5057886;28;20119;-56
2022/01/27 02:24:55;;;;;;;4.50;3.75;;;9.40;81.40;;;;;;5065220;28;20182;-52
2022/01/27 02:27:21;;;;;;;6.13;3.50;;;9.40;81.30;;;;;;5077622;28;20404;-56
2022/01/27 02:29:48;;;;;;;5.63;3.70;;;9.40;81.30;;;;;;5078067;28;20040;-58
2022/01/27 02:32:15;;;;;;;5.22;3.83;;;9.40;81.30;;;;;;5077548;28;20051;-56
2022/01/27 02:34:41;;;;;;;4.72;3.67;;;9.40;81.40;;;;;;5077748;28;20047;-56
2022/01/27 02:37:08;;;;;;;5.70;4.10;;;9.40;81.30;;;;;;5077398;28;20059;-52
2022/01/27 02:39:34;;;;;;;5.78;4.22;;;9.50;81.40;;;;;;5077686;28;20048;-56
2022/01/27 02:42:16;;;;;;;6.50;4.00;;;9.40;81.40;;;;;;5077588;28;20125;-56
2022/01/27 02:44:53;;;;;;;5.03;4.07;;;9.50;81.40;;;;;;5077475;28;20055;-52
2022/01/27 02:47:20;;;;;;;7.53;4.18;;;9.50;81.40;;;;;;5077585;28;20041;-57
2022/01/27 02:49:46;;;;;;;6.35;4.47;;;9.40;81.40;;;;;;5077678;28;20061;-60
2022/01/27 02:52:13;;;;;;;5.93;4.10;;;9.50;81.40;;;;;;5077095;28;20378;-53
2022/01/27 02:54:39;;;;;;;6.10;3.88;;;9.50;81.40;;;;;;5077652;28;20044;-52
2022/01/27 02:57:04;;;;;;;5.50;4.20;;;9.50;81.40;;;;;;5076829;28;20443;-54
2022/01/27 02:59:30;;;;;;;7.45;3.95;;;9.50;81.40;;;;;;5077748;28;20040;-55
2022/01/27 03:01:56;;;;;;;5.85;4.13;;;9.50;81.40;;;;;;5077339;28;20511;-53
2022/01/27 03:04:23;;;;;;;5.38;4.05;;;9.50;81.40;;;;;;5077496;28;20036;-55
2022/01/27 03:06:49;;;;;;;5.22;3.78;;;9.50;81.40;;;;;;5077559;28;20040;-54
2022/01/27 03:09:15;;;;;;;4.88;3.75;;;9.50;81.40;;;;;;5077382;28;20040;-53
2022/01/27 03:11:50;;;;;;;5.05;3.80;;;9.50;81.40;;;;;;5077040;28;20488;-57
2022/01/27 03:14:19;;;;;;;5.07;3.93;;;9.50;81.40;;;;;;5077250;28;20049;-52
2022/01/27 03:16:45;;;;;;;5.45;3.90;;;9.50;81.40;;;;;;5075620;28;20382;-53
2022/01/27 03:19:11;;;;;;;6.13;3.97;;;9.50;81.40;;;;;;5073762;28;20124;-55
2022/01/27 03:21:37;;;;;;;4.55;3.72;;;9.50;81.40;;;;;;5074182;28;20472;-51
2022/01/27 03:24:04;;;;;;;6.05;4.35;;;9.50;81.40;;;;;;5073751;28;20048;-57
2022/01/27 03:26:30;;;;;;;5.07;3.78;;;9.50;81.40;;;;;;5073936;28;20049;-60
2022/01/27 03:28:56;;;;;;;5.20;4.03;;;9.50;81.40;;;;;;5074163;28;20063;-52
2022/01/27 03:31:21;;;;;;;6.53;4.20;;;9.50;81.40;;;;;;5073629;28;20566;-57
2022/01/27 03:33:47;;;;;;;5.82;4.53;;;9.50;81.50;;;;;;5055791;28;20048;-57
2022/01/27 03:36:14;;;;;;;5.80;4.53;;;9.50;81.40;;;;;;5073801;28;20040;-61
2022/01/27 03:38:40;;;;;;;5.72;4.15;;;9.50;81.50;;;;;;5074196;28;20067;-58
2022/01/27 03:41:08;;;;;;;6.63;4.57;;;9.50;81.50;;;;;;5073284;28;20055;-58
2022/01/27 03:43:35;;;;;;;5.63;4.50;;;9.50;81.50;;;;;;5073870;28;20088;-57
2022/01/27 03:46:02;;;;;;;5.03;3.85;;;9.50;81.50;;;;;;5073651;28;20048;-57
2022/01/27 03:48:28;;;;;;;5.55;4.18;;;9.50;81.50;;;;;;5073553;28;20040;-57
2022/01/27 03:50:54;;;;;;;4.90;3.95;;;9.50;81.50;;;;;;5073832;28;20400;-55
2022/01/27 03:53:20;;;;;;;6.85;4.38;;;9.50;81.50;;;;;;5073095;28;20132;-55
2022/01/27 03:55:46;;;;;;;6.07;4.60;;;9.50;81.50;;;;;;5073513;28;20503;-55
2022/01/27 03:58:12;;;;;;;6.47;4.38;;;9.50;81.50;;;;;;5072867;28;20040;-57
2022/01/27 04:00:38;;;;;;;6.68;4.50;;;9.50;81.50;;;;;;5073730;28;20545;-55
2022/01/27 04:03:08;;;;;;;4.68;3.90;;;9.50;81.50;;;;;;5073224;28;20048;-55
2022/01/27 04:05:40;;;;;;;6.13;4.57;;;9.50;81.50;;;;;;5073444;28;20040;-52
2022/01/27 04:08:08;;;;;;;8.32;4.57;;;9.50;81.50;;;;;;5072843;28;20056;-54
2022/01/27 04:10:35;;;;;;;7.32;4.40;;;9.50;81.50;;;;;;5073475;28;20048;-56
2022/01/27 04:13:03;;;;;;;5.72;4.22;;;9.50;81.50;;;;;;5060038;28;20144;-56
2022/01/27 04:15:28;;;;;;;5.68;4.18;;;9.50;81.50;;;;;;5057584;28;20037;-55
2022/01/27 04:17:54;;;;;;;5.55;4.35;;;9.50;81.50;;;;;;5053112;28;20098;-55
2022/01/27 04:20:20;;;;;;;6.05;4.57;;;9.50;81.50;;;;;;5052929;28;20037;-55
2022/01/27 04:22:46;;;;;;;6.18;4.47;;;9.50;81.50;;;;;;5052990;28;20048;-55
2022/01/27 04:25:13;;;;;;;4.60;3.92;;;9.50;82.10;;;;;;5061973;28;20041;-56
2022/01/27 04:27:43;;;;;;;6.57;5.18;;;9.50;81.50;;;;;;5072327;28;20086;-56
2022/01/27 04:30:16;;;;;;;6.35;4.78;;;9.50;81.50;;;;;;5072536;28;20135;-53
2022/01/27 04:32:53;;;;;;;5.60;4.30;;;9.50;81.50;;;;;;5072812;28;20508;-57
2022/01/27 04:35:21;;;;;;;7.13;4.50;;;9.50;81.50;;;;;;5072373;28;20045;-58
2022/01/27 04:38:12;;;;;;;6.57;4.40;;;9.50;81.50;;;;;;5072883;28;20083;-56
2022/01/27 04:43:23;;;;;;;6.82;4.65;;;9.50;81.50;;;;;;5071918;28;20056;-57
2022/01/27 04:48:18;;;;;;;5.72;4.20;;;9.50;81.50;;;;;;5072285;28;20049;-49
2022/01/27 04:50:43;;;;;;;6.65;4.60;;;9.50;81.50;;;;;;5072645;28;20044;-57
2022/01/27 04:53:16;;;;;;;5.80;4.43;;;9.50;81.50;;;;;;5072029;28;20481;-57
2022/01/27 04:55:42;;;;;;;7.20;4.68;;;9.50;81.50;;;;;;5072533;28;20090;-56
2022/01/27 04:58:13;;;;;;;6.00;4.40;;;9.50;81.50;;;;;;5053461;28;20045;-55
2022/01/27 05:00:39;;;;;;;6.47;4.72;;;9.50;81.50;;;;;;5072274;28;20560;-56
2022/01/27 05:03:15;;;;;;;6.03;4.38;;;9.50;81.50;;;;;;5071611;28;20136;-55
2022/01/27 05:05:40;;;;;;;8.02;4.50;;;9.50;81.50;;;;;;5072356;28;20036;-53
2022/01/27 05:08:10;;;;;;;6.13;4.50;;;9.50;81.50;;;;;;5071965;28;20040;-57
2022/01/27 05:10:36;;;;;;;6.53;4.63;;;9.50;81.50;;;;;;5072271;28;20048;-56
2022/01/27 05:13:13;;;;;;;6.55;4.05;;;9.50;81.50;;;;;;5071400;28;20129;-60
2022/01/27 05:15:44;;;;;;;6.85;4.40;;;9.50;81.50;;;;;;5071986;28;20036;-56
2022/01/27 05:18:15;;;;;;;5.10;4.43;;;9.50;81.50;;;;;;5071549;28;20128;-56
2022/01/27 05:20:41;;;;;;;6.53;4.47;;;9.50;81.60;;;;;;5072187;28;20098;-55
2022/01/27 05:23:07;;;;;;;7.18;4.78;;;9.50;81.50;;;;;;5071696;28;20048;-55
2022/01/27 05:25:32;;;;;;;5.30;4.50;;;9.50;81.50;;;;;;5071887;28;20083;-54
2022/01/27 05:27:58;;;;;;;6.15;4.60;;;9.50;81.50;;;;;;5071493;28;20116;-57
2022/01/27 05:30:24;;;;;;;6.28;4.20;;;9.50;81.50;;;;;;5071569;28;20029;-56
2022/01/27 05:32:49;;;;;;;9.00;4.75;;;9.50;81.50;;;;;;5072063;28;20119;-54
2022/01/27 05:35:15;;;;;;;7.03;4.70;;;9.50;81.50;;;;;;5071534;28;20461;-57
2022/01/27 05:37:40;;;;;;;6.95;4.53;;;9.50;81.50;;;;;;5071841;28;20128;-55
2022/01/27 05:40:07;;;;;;;6.35;4.38;;;9.50;81.60;;;;;;5070383;28;20041;-54
2022/01/27 05:42:33;;;;;;;6.20;4.15;;;9.50;81.50;;;;;;5071542;28;20580;-56
2022/01/27 05:44:59;;;;;;;6.18;4.20;;;9.50;81.50;;;;;;5071001;28;20120;-58
2022/01/27 05:47:24;;;;;;;6.53;4.40;;;9.50;81.50;;;;;;5071267;28;20512;-55
2022/01/27 05:49:50;;;;;;;6.65;4.05;;;9.50;81.50;;;;;;5071531;28;20044;-52
2022/01/27 05:52:16;;;;;;;4.40;3.95;;;9.50;81.50;;;;;;5071065;28;20052;-57
2022/01/27 05:54:42;;;;;;;6.20;4.30;;;9.50;81.50;;;;;;5071763;28;20098;-55
2022/01/27 05:57:08;;;;;;;5.28;4.63;;;9.50;81.50;;;;;;5070862;28;20499;-56
2022/01/27 05:59:33;;;;;;;6.13;4.80;;;9.60;81.60;;;;;;5071513;28;20045;-54
2022/01/27 06:01:59;;;;;;;7.93;4.70;;;9.50;81.50;;;;;;5070789;28;20048;-57
2022/01/27 06:04:25;;;;;;;6.53;4.18;;;9.50;81.50;;;;;;5071658;28;20039;-56
2022/01/27 06:06:53;;;;;;;5.97;4.30;;;9.50;81.50;;;;;;5071464;28;20076;-57
2022/01/27 06:09:19;;;;;;;5.60;4.63;;;9.50;81.50;;;;;;5071087;28;20052;-53
2022/01/27 06:11:44;;;;;;;5.70;4.22;;;9.50;81.50;;;;;;5071234;28;20566;-54
2022/01/27 06:14:10;;;;;;;6.00;4.43;;;9.50;81.60;;;;;;5071059;28;20080;-53
2022/01/27 06:16:36;;;;;;;4.90;4.20;;;9.50;81.60;;;;;;5070900;28;20052;-54
2022/01/27 06:19:04;;;;;;;5.18;3.85;;;9.50;81.60;;;;;;5071071;28;20048;-55
2022/01/27 06:21:30;;;;;;;4.78;3.50;;;9.50;81.50;;;;;;5071344;28;20076;-54
2022/01/27 06:23:56;;;;;;;6.20;4.10;;;9.60;81.60;;;;;;5071254;28;20524;-56
2022/01/27 06:26:22;;;;;;;5.65;3.95;;;9.50;81.60;;;;;;5070915;28;20037;-57
2022/01/27 06:28:48;;;;;;;6.63;4.03;;;9.60;81.60;;;;;;5071568;28;20131;-56
2022/01/27 06:31:14;;;;;;;4.38;3.42;;;9.60;81.60;;;;;;5070392;28;20120;-56
2022/01/27 06:33:40;;;;;;;4.68;3.67;;;9.50;81.50;;;;;;5070962;28;20523;-56
2022/01/27 06:36:05;;;;;;;5.25;3.92;;;9.60;81.60;;;;;;5070570;28;20048;-61
2022/01/27 06:38:31;;;;;;;5.68;4.20;;;9.50;81.50;;;;;;5071109;28;20047;-55
2022/01/27 06:41:00;;;;;;;4.72;3.90;;;9.60;81.60;;;;;;5071475;28;20044;-52
2022/01/27 06:43:25;;;;;;;5.18;3.60;;;9.60;81.60;;;;;;5071276;28;20405;-59
2022/01/27 06:45:51;;;;;;;6.60;4.45;;;9.50;81.50;;;;;;5071031;28;20090;-57
2022/01/27 06:48:16;;;;;;;6.50;4.25;;;9.60;81.60;;;;;;5070530;28;20111;-56
2022/01/27 06:50:42;;;;;;;6.03;3.70;;;9.60;81.60;;;;;;5059325;28;20515;-62
2022/01/27 06:53:09;;;;;;;5.25;3.90;;;9.50;81.50;;;;;;5056886;28;20052;-55
2022/01/27 06:55:34;;;;;;;5.07;3.70;;;9.60;81.60;;;;;;5054913;28;20436;-58
2022/01/27 06:58:00;;;;;;;6.63;4.03;;;9.60;81.60;;;;;;5054419;28;20049;-54
2022/01/27 07:00:26;;;;;;;4.50;3.67;;;9.60;81.60;;;;;;5054491;28;20508;-54
2022/01/27 07:02:51;;;;;;;4.75;3.78;;;9.50;81.50;;;;;;5054214;28;20048;-59
2022/01/27 07:05:18;;;;;;;5.85;4.25;;;9.60;81.60;;;;;;5053946;28;20044;-60
2022/01/27 07:07:44;;;;;;;5.97;4.15;;;9.60;81.60;;;;;;5054744;28;20044;-52
2022/01/27 07:10:11;;;;;;;3.97;3.17;;;9.60;81.60;;;;;;5054070;28;20462;-55
2022/01/27 07:12:40;;;;;;;4.68;4.10;;;9.60;81.70;;;;;;5054100;28;20056;-47
2022/01/27 07:15:06;;;;;;;7.43;4.13;;;9.60;81.70;;;;;;5054256;28;20056;-58
2022/01/27 07:17:32;;;;;;;4.78;3.42;;;9.60;81.60;;;;;;5054018;28;20090;-49
2022/01/27 07:19:57;;;;;;;4.93;3.60;;;9.60;81.60;;;;;;5054659;28;20166;-57
2022/01/27 07:22:23;;;;;;;4.95;3.67;;;9.60;81.60;;;;;;5054335;28;20041;-59
2022/01/27 07:24:49;;;;;;;6.43;4.13;;;9.60;81.60;;;;;;5060956;28;20047;-60
2022/01/27 07:27:14;;;;;;;6.13;3.80;;;9.60;81.60;;;;;;5073798;28;20078;-58
2022/01/27 07:29:40;;;;;;;4.65;3.55;;;9.50;81.60;;;;;;5074273;28;20501;-54
2022/01/27 07:32:06;;;;;;;5.50;3.67;;;9.60;81.60;;;;;;5073480;28;20118;-54
2022/01/27 07:34:32;;;;;;;4.97;3.83;;;9.60;81.70;;;;;;5074010;28;20109;-56
2022/01/27 07:37:00;;;;;;;5.00;3.65;;;9.60;81.60;;;;;;5074058;28;20128;-57
2022/01/27 07:39:26;;;;;;;5.65;4.13;;;9.60;81.70;;;;;;5073153;28;20492;-58
2022/01/27 07:41:52;;;;;;;3.95;3.40;;;9.60;81.60;;;;;;5073444;28;20090;-58
2022/01/27 07:44:17;;;;;;;4.20;3.45;;;9.60;81.60;;;;;;5073563;28;20052;-58
2022/01/27 07:46:43;;;;;;;4.30;3.53;;;9.60;81.60;;;;;;5073950;28;20441;-55
2022/01/27 07:49:08;;;;;;;4.60;3.72;;;9.60;81.60;;;;;;5072945;28;20427;-57
2022/01/27 07:51:34;;;;;;;6.80;3.20;;;9.60;81.60;;;;;;5073667;28;20076;-57
2022/01/27 07:54:00;;;;;;;4.55;3.80;;;9.50;81.50;;;;;;5073255;28;20040;-58
2022/01/27 07:56:26;;;;;;;4.45;3.45;;;9.60;81.60;;;;;;5073789;28;20043;-56
2022/01/27 07:58:53;;;;;;;4.43;3.17;;;9.60;81.60;;;;;;5073763;28;20044;-53
2022/01/27 08:01:19;;;;;;;4.60;3.30;;;9.60;81.60;;;;;;5072966;28;20400;-55
2022/01/27 08:03:44;;;;;;;5.15;3.55;;;9.60;81.60;;;;;;5072439;28;20045;-55
2022/01/27 08:06:10;;;;;;;5.75;3.60;;;9.60;81.60;;;;;;5073132;28;20041;-59
2022/01/27 08:08:35;;;;;;;4.97;3.63;;;9.60;81.60;;;;;;5073654;28;20404;-52
2022/01/27 08:11:02;;;;;;;5.38;3.53;;;9.60;81.60;;;;;;5072977;28;20045;-53
2022/01/27 08:13:28;;;;;;;5.90;3.83;;;9.60;81.60;;;;;;5073071;28;20390;-54
2022/01/27 08:15:54;;;;;;;5.93;3.67;;;9.60;81.60;;;;;;5073640;28;20079;-58
2022/01/27 08:18:20;;;;;;;6.40;3.70;;;9.70;82.30;;;;;;5072595;28;20044;-56
2022/01/27 08:20:47;;;;;;;4.70;3.75;;;9.60;81.60;;;;;;5073291;28;20119;-60
2022/01/27 08:23:14;;;;;;;5.53;3.45;;;9.60;81.60;;;;;;5072674;28;20132;-61
2022/01/27 08:25:41;;;;;;;5.05;3.78;;;9.60;81.60;;;;;;5073200;28;20048;-56
2022/01/27 08:28:18;;;;;;;4.85;3.22;;;9.60;81.60;;;;;;5072641;28;20128;-57
2022/01/27 08:30:48;;;;;;;5.55;3.53;;;9.60;81.60;;;;;;5072846;28;20041;-58
2022/01/27 08:33:16;;;;;;;4.13;3.00;;;9.60;81.60;;;;;;5072040;28;20044;-56
2022/01/27 08:35:42;;;;;;;5.10;3.40;;;9.60;81.60;;;;;;5073195;28;20094;-58
2022/01/27 08:38:08;;;;;;;5.00;3.40;;;9.60;81.60;;;;;;5054178;28;20056;-56
2022/01/27 08:40:33;;;;;;;6.90;3.20;;;9.60;81.60;;;;;;5072939;28;20045;-58
2022/01/27 08:43:00;;;;;;;5.55;3.50;;;9.60;81.60;;;;;;5072321;28;20090;-59
2022/01/27 08:45:26;;;;;;;4.43;3.15;;;9.60;81.60;;;;;;5072604;28;20405;-61
2022/01/27 08:47:54;;;;;;;5.65;3.80;;;9.70;81.60;;;;;;5072778;28;20691;-59
2022/01/27 08:50:21;;;;;;;4.60;3.17;;;9.60;81.60;;;;;;5072126;28;20097;-58
2022/01/27 08:52:47;;;;;;;4.43;3.10;;;9.60;81.60;;;;;;5072809;28;20072;-60
2022/01/27 08:55:13;;;;;;;5.50;3.08;;;9.60;81.60;;;;;;5071978;28;20519;-59
2022/01/27 08:57:39;;;;;;;4.13;3.33;;;9.60;81.60;;;;;;5072232;28;20195;-58
2022/01/27 09:00:13;;;;;;;3.92;3.00;;;9.60;81.60;;;;;;5072170;28;20043;-59
2022/01/27 09:02:38;;;;;;;4.22;3.28;;;9.60;81.60;;;;;;5072081;28;20105;-58
2022/01/27 09:05:04;;;;;;;4.93;3.05;;;9.70;81.70;;;;;;5071858;28;20433;-59
2022/01/27 09:07:30;;;;;;;5.28;3.05;;;9.70;81.60;;;;;;5072342;28;20048;-54
2022/01/27 09:09:56;;;;;;;6.53;3.28;;;9.70;81.60;;;;;;5072223;28;20043;-54
2022/01/27 09:12:22;;;;;;;5.82;3.40;;;9.70;81.60;;;;;;5071860;28;20102;-59
2022/01/27 09:14:47;;;;;;;7.78;3.38;;;9.70;81.60;;;;;;5072127;28;20051;-58
2022/01/27 09:17:15;;;;;;;5.15;3.50;;;9.80;81.70;;;;;;5071787;28;20048;-59
2022/01/27 09:19:45;;;;;;;4.35;2.90;;;9.60;81.60;;;;;;5071649;28;20053;-59
2022/01/27 09:22:15;;;;;;;4.88;2.95;;;9.70;81.60;;;;;;5071657;28;20051;-61
2022/01/27 09:24:57;;;;;;;4.20;2.90;;;9.60;81.60;;;;;;5072054;28;20094;-57
2022/01/27 09:27:24;;;;;;;5.72;3.03;;;9.60;81.60;;;;;;5060745;28;20033;-59
2022/01/27 09:29:51;;;;;;;4.10;2.90;;;9.60;81.60;;;;;;5054899;28;20041;-57
2022/01/27 09:32:18;;;;;;;5.55;3.25;;;9.70;81.70;;;;;;5051453;28;20048;-57
2022/01/27 09:34:44;;;;;;;6.65;3.20;;;9.70;81.60;;;;;;5069193;28;20094;-58
2022/01/27 09:37:10;;;;;;;7.00;3.13;;;9.70;81.60;;;;;;5070964;28;20036;-56
2022/01/27 09:39:36;;;;;;;4.97;3.03;;;9.60;82.30;;;;;;5040997;28;20052;-53
2022/01/27 09:42:04;;;;;;;4.00;2.65;;;9.70;81.60;;;;;;5069083;28;20037;-56
2022/01/27 09:44:32;;;;;;;4.13;2.72;;;9.70;81.60;;;;;;5069736;28;20055;-56
2022/01/27 09:47:11;;;;;;;4.25;2.90;;;9.70;81.60;;;;;;5069861;28;20051;-56
2022/01/27 09:49:41;;;;;;;4.22;2.60;;;9.70;81.70;;;;;;5070269;28;20048;-53
2022/01/27 09:52:07;;;;;;;5.03;2.90;;;9.70;81.70;;;;;;5069922;28;20840;-54
2022/01/27 09:54:34;;;;;;;3.10;2.30;;;9.70;81.60;;;;;;5069767;28;20131;-56
2022/01/27 09:57:01;;;;;;;5.85;2.60;;;9.70;81.70;;;;;;5070088;28;20076;-52
2022/01/27 09:59:27;;;;;;;4.15;2.50;;;9.70;81.70;;;;;;5069941;28;20049;-53
2022/01/27 10:02:17;;;;;;;4.55;2.50;;;9.70;81.60;;;;;;5069202;28;20055;-51
2022/01/27 10:04:44;;;;;;;5.43;2.53;;;9.70;81.60;;;;;;5056513;28;20056;-50
2022/01/27 10:07:14;;;;;;;4.97;3.10;;;9.70;81.70;;;;;;5069246;28;20041;-54
2022/01/27 10:09:40;;;;;;;5.85;2.85;;;9.70;81.70;;;;;;5069979;28;20040;-57
2022/01/27 10:12:06;;;;;;;6.22;2.83;;;9.70;81.70;;;;;;5069844;28;20044;-53
2022/01/27 10:14:38;;;;;;;3.25;2.50;;;9.70;81.60;;;;;;5070355;28;20056;-49
2022/01/27 10:17:08;;;;;;;4.43;2.63;;;9.60;81.60;;;;;;5069551;28;20044;-53
2022/01/27 10:19:36;;;;;;;3.15;2.40;;;9.70;81.70;;;;;;5070482;28;20043;-53
2022/01/27 10:22:13;;;;;;;3.55;2.53;;;9.70;81.70;;;;;;5069448;28;20040;-49
2022/01/27 10:24:39;;;;;;;3.67;2.13;;;9.70;81.70;;;;;;5070117;28;20040;-54
2022/01/27 10:32:42;;;;;;;5.13;2.20;;;9.70;81.70;;;;;;5073939;28;20048;-48
2022/01/27 10:35:10;;;;;;;5.10;2.33;;;9.70;81.60;;;;;;5071170;28;20518;-59
2022/01/27 10:37:52;;;;;;;3.13;2.50;;;9.70;81.70;;;;;;5073732;28;20090;-58
2022/01/27 10:40:24;;;;;;;2.97;2.40;;;9.70;81.60;;;;;;5072909;28;20044;-58
2022/01/27 10:43:10;;;;;;;3.30;2.10;;;9.70;81.60;;;;;;5074232;28;20083;-57
2022/01/27 10:45:37;;;;;;;;;;;9.70;81.60;;;;;;5074719;28;20091;-57
2022/01/27 10:48:13;;;;;;;3.95;2.45;;;9.70;81.60;;;;;;5073954;28;19920;-53
2022/01/27 10:50:54;;;;;;;5.75;2.53;;;9.70;81.70;;;;;;5074462;28;20052;-57
2022/01/27 10:53:20;;;;;;;6.63;2.85;;;9.70;81.70;;;;;;5073856;28;20047;-54
2022/01/27 10:56:05;;;;;;;5.32;2.60;;;9.70;81.70;;;;;;5069939;28;20068;-52
2022/01/27 10:58:31;;;;;;;6.32;2.78;;;9.70;81.70;;;;;;5054724;28;20397;-58
2022/01/27 11:00:59;;;;;;;3.88;2.40;;;9.70;81.70;;;;;;5071354;28;20476;-58
2022/01/27 11:03:28;;;;;;;3.75;2.35;;;9.70;81.80;;;;;;5074733;28;20396;-54
2022/01/27 11:05:56;;;;;;;3.42;2.15;;;9.70;81.70;;;;;;5074676;28;20120;-57
2022/01/27 11:08:24;;;;;;;4.78;2.72;;;9.70;81.80;;;;;;5056109;28;20123;-56
2022/01/27 11:10:51;;;;;;;5.25;2.40;;;9.70;81.80;;;;;;5074011;28;20044;-55
2022/01/27 11:13:19;;;;;;;3.50;2.30;;;9.70;81.80;;;;;;5073793;28;20056;-57
2022/01/27 11:15:46;;;;;;;2.85;2.13;;;9.70;81.80;;;;;;5074479;28;20060;-51
2022/01/27 11:18:14;;;;;;;5.80;2.72;;;9.70;81.80;;;;;;5073468;28;20087;-58
2022/01/27 11:26:11;;;;;;;6.05;2.40;;;9.70;81.70;;;;;;4992227;28;19925;-57
2022/01/27 11:28:42;;;;;;;5.93;2.15;;;9.70;81.80;;;;;;4992585;28;20477;-58
2022/01/27 11:31:47;;;;;;;7.35;2.50;;;9.70;81.90;;;;;;4991730;28;20038;-48
2022/01/27 11:34:13;;;;;;;4.33;2.10;;;9.70;81.70;;;;;;4992108;28;20052;-58
2022/01/27 11:36:59;;;;;;;5.65;2.30;;;9.70;81.80;;;;;;4992110;28;20467;-55
2022/01/27 11:39:52;;;;;;;4.05;2.00;;;9.80;81.80;;;;;;4991635;28;20125;-56
2022/01/27 11:42:41;;;;;;;4.88;2.40;;;9.70;81.80;;;;;;4991245;28;20050;-53
2022/01/27 11:45:28;;;;;;;4.35;2.10;;;9.80;81.80;;;;;;4991563;28;20050;-52
2022/01/27 11:47:56;;;;;;;2.67;2.00;;;9.80;81.90;;;;;;4987313;28;20657;-56
2022/01/27 11:50:33;;;;;;;4.50;2.45;;;9.90;82.00;;;;;;4991557;28;20042;-55
2022/01/27 11:53:00;;;;;;;4.75;2.33;;;9.80;81.90;;;;;;4993407;28;20423;-54
2022/01/27 11:55:26;;;;;;;5.00;2.25;;;9.70;81.90;;;;;;4991647;28;20198;-55
2022/01/27 11:58:13;;;;;;;5.18;2.50;;;9.80;82.00;;;;;;5003016;28;20140;-53
2022/01/27 12:00:40;;;;;;;4.32;1.88;;;9.80;82.00;;;;;;5057992;28;20110;-54
2022/01/27 12:03:14;;;;;;;4.80;2.17;;;9.80;82.00;;;;;;5072406;28;20053;-51
2022/01/27 12:05:45;;;;;;;4.15;2.25;;;9.80;82.00;;;;;;5087369;28;20032;-51
2022/01/27 12:08:13;;;;;;;4.95;2.28;;;9.80;82.00;;;;;;5092378;28;20058;-49
2022/01/27 12:10:47;;;;;;;5.55;2.58;;;9.80;82.00;;;;;;5092912;28;20079;-54
2022/01/27 12:19:10;;;;;;;3.95;1.70;;;9.80;82.00;;;;;;5072386;28;20044;-55
2022/01/27 12:21:53;;;;;;;4.22;2.13;;;9.80;81.90;;;;;;5072461;28;20083;-55
2022/01/27 12:24:25;;;;;;;3.20;2.13;;;9.80;82.00;;;;;;5071560;28;20074;-49
2022/01/27 12:27:02;;;;;;;4.60;2.17;;;9.80;82.00;;;;;;5072158;28;20123;-57
2022/01/27 12:29:40;;;;;;;4.47;1.95;;;9.80;82.00;;;;;;5072428;28;20052;-49
2022/01/27 12:32:28;;;;;;;6.20;2.00;;;9.80;82.00;;;;;;5072072;28;20072;-52
2022/01/27 12:35:18;;;;;;;3.63;2.00;;;9.80;82.00;;;;;;5071726;28;20094;-58
2022/01/27 12:37:49;;;;;;;4.13;1.90;;;9.80;82.00;;;;;;5052241;28;20113;-53
2022/01/27 12:40:28;;;;;;;7.63;2.38;;;9.80;82.00;;;;;;5051513;28;20037;-60
2022/01/27 12:43:02;;;;;;;6.20;2.42;;;9.80;82.00;;;;;;5052675;28;20044;-55
2022/01/27 12:45:32;;;;;;;6.03;2.10;;;9.80;82.00;;;;;;5035368;28;20103;-54
2022/01/27 12:48:04;;;;;;;7.28;2.13;;;9.80;82.00;;;;;;5052859;28;20041;-58
2022/01/27 12:50:30;;;;;;;8.25;3.17;;;9.80;82.00;;;;;;5052281;28;20045;-58
2022/01/27 12:53:00;;;;;;;6.93;3.10;;;9.80;82.20;;;;;;5054503;28;20041;-52
2022/01/27 12:55:37;;;;;;;4.97;2.20;;;9.80;82.20;;;;;;5071336;28;20523;-49
2022/01/27 12:58:09;;;;;;;6.10;2.35;;;9.80;82.20;;;;;;5070601;28;20052;-52
2022/01/27 13:00:43;;;;;;;7.35;2.67;;;9.80;82.20;;;;;;5088227;28;20051;-49
2022/01/27 13:03:09;;;;;;;9.88;2.67;;;9.80;82.10;;;;;;5072818;28;20080;-49
2022/01/27 13:05:36;;;;;;;7.57;2.20;;;9.90;82.10;;;;;;5071567;28;20059;-49
2022/01/27 13:08:06;;;;;;;4.20;1.75;;;9.80;82.20;;;;;;5070532;28;20048;-51
2022/01/27 13:10:32;;;;;;;14.98;4.25;;;9.80;82.10;;;;;;5071566;28;20103;-47
2022/01/27 13:13:06;;;;;;;6.45;2.45;;;9.80;82.30;;;;;;5071738;28;20587;-45
2022/01/27 13:15:32;;;;;;;8.95;2.95;;;9.90;82.30;;;;;;5072294;28;20127;-50
2022/01/27 13:18:03;;;;;;;10.02;3.40;;;9.80;82.20;;;;;;5071104;28;20132;-52
2022/01/27 13:20:35;;;;;;;9.63;3.92;;;9.80;82.20;;;;;;5071124;28;20404;-51
2022/01/27 13:23:09;;;;;;;10.93;3.17;;;9.90;82.20;;;;;;5051713;28;20120;-51
2022/01/27 13:25:44;;;;;;;6.07;2.42;;;9.90;82.20;;;;;;5056267;28;20032;-50
2022/01/27 13:28:14;;;;;;;10.10;2.85;;;9.90;82.20;;;;;;5060351;28;20044;-49
2022/01/27 13:30:40;;;;;;;8.88;2.30;;;9.90;82.20;;;;;;5067422;28;20668;-51
2022/01/27 13:33:09;;;;;;;10.55;3.42;;;9.90;82.10;;;;;;5086250;28;20403;-49
2022/01/27 13:35:35;;;;;;;8.98;2.10;;;9.90;82.10;;;;;;5087243;28;20044;-55
2022/01/27 13:38:31;;;;;;;9.98;2.90;;;9.90;82.10;;;;;;5087377;28;20086;-50
2022/01/27 13:41:24;;;;;;;10.07;2.78;;;9.90;82.00;;;;;;4984395;28;20093;-55
2022/01/27 13:44:01;;;;;;;6.63;2.30;;;9.90;82.00;;;;;;4985439;28;20213;-50
2022/01/27 13:46:47;;;;;;;6.40;2.30;;;9.90;82.00;;;;;;4985621;28;20395;-56
2022/01/27 13:49:19;;;;;;;5.82;1.98;;;9.90;82.00;;;;;;4985732;28;20152;-52
2022/01/27 13:52:15;;;;;;;7.40;2.28;;;9.90;82.00;;;;;;4984833;28;20053;-53
2022/01/27 13:54:43;;;;;;;9.05;2.88;;;9.90;81.90;;;;;;4945722;28;20055;-50
2022/01/27 13:57:11;;;;;;;5.57;2.45;;;9.90;82.00;;;;;;4945980;29;20157;-59
2022/01/27 13:59:41;;;;;;;5.65;2.38;;;9.90;82.00;;;;;;4946805;29;20062;-51
2022/01/27 14:02:33;;;;;;;7.88;2.17;;;9.90;81.90;;;;;;4944520;29;20539;-53